createdAt,value
2022-08-26T00:01:29.805Z,23.66
2022-08-26T00:06:38.067Z,23.66
2022-08-26T00:12:12.470Z,23.65
2022-08-26T00:17:20.841Z,23.60
2022-08-26T00:22:29.787Z,23.56
2022-08-26T00:27:40.106Z,23.50
2022-08-26T00:32:44.321Z,23.43
2022-08-26T00:37:59.295Z,23.34
2022-08-26T00:43:09.753Z,23.28
2022-08-26T00:48:20.263Z,23.23
2022-08-26T00:53:32.627Z,23.21
2022-08-26T00:59:20.050Z,23.16
2022-08-26T01:04:26.096Z,23.15
2022-08-26T01:09:54.031Z,23.11
2022-08-26T01:15:14.092Z,23.07
2022-08-26T01:20:34.232Z,23.05
2022-08-26T01:26:04.948Z,23.05
2022-08-26T01:31:20.683Z,22.96
2022-08-26T01:36:25.917Z,22.87
2022-08-26T01:41:40.073Z,22.87
2022-08-26T01:46:59.147Z,22.87
2022-08-26T01:52:10.783Z,22.85
2022-08-26T01:57:30.763Z,22.82
2022-08-26T02:02:38.185Z,22.82
2022-08-26T02:07:45.186Z,22.80
2022-08-26T02:13:00.737Z,22.82
2022-08-26T02:18:08.944Z,22.79
2022-08-26T02:23:24.384Z,22.81
2022-08-26T02:28:50.070Z,22.79
2022-08-26T02:34:10.725Z,22.81
2022-08-26T02:39:33.234Z,22.80
2022-08-26T02:44:47.933Z,22.70
2022-08-26T02:49:54.978Z,22.73
2022-08-26T02:55:08.467Z,22.71
2022-08-26T03:00:53.154Z,22.62
2022-08-26T03:06:09.001Z,22.64
2022-08-26T03:11:16.205Z,22.67
2022-08-26T03:16:32.297Z,22.63
2022-08-26T03:21:43.426Z,22.58
2022-08-26T03:26:58.829Z,22.49
2022-08-26T03:32:11.491Z,22.43
2022-08-26T03:37:22.420Z,22.40
2022-08-26T03:42:29.071Z,22.36
2022-08-26T03:47:38.219Z,22.36
2022-08-26T03:52:48.234Z,22.32
2022-08-26T03:57:57.936Z,22.28
2022-08-26T04:03:15.658Z,22.20
2022-08-26T04:08:23.822Z,22.17
2022-08-26T04:13:36.148Z,22.14
2022-08-26T04:18:47.717Z,22.13
2022-08-26T04:23:52.872Z,22.16
2022-08-26T04:29:02.313Z,22.14
2022-08-26T04:34:17.663Z,22.14
2022-08-26T04:39:27.570Z,22.16
2022-08-26T04:44:34.077Z,22.19
2022-08-26T04:49:41.101Z,22.27
2022-08-26T04:54:47.202Z,22.31
2022-08-26T04:59:53.844Z,22.38
2022-08-26T05:05:09.148Z,22.50
2022-08-26T05:10:32.338Z,22.61
2022-08-26T05:15:37.976Z,22.65
2022-08-26T05:20:48.112Z,22.77
2022-08-26T05:25:59.274Z,22.85
2022-08-26T05:31:16.060Z,22.95
2022-08-26T05:36:32.034Z,23.08
2022-08-26T05:41:38.710Z,23.24
2022-08-26T05:46:46.166Z,23.48
2022-08-26T05:51:52.829Z,23.85
2022-08-26T05:56:57.596Z,24.19
2022-08-26T06:02:06.314Z,24.36
2022-08-26T06:07:17.076Z,24.66
2022-08-26T06:12:28.520Z,26.13
2022-08-26T06:18:00.809Z,27.63
2022-08-26T06:23:27.209Z,28.42
2022-08-26T06:28:36.153Z,27.59
2022-08-26T06:33:44.374Z,27.22
2022-08-26T06:38:55.321Z,27.08
2022-08-26T06:44:08.876Z,27.06
2022-08-26T06:49:18.189Z,27.03
2022-08-26T07:00:22.667Z,27.08
2022-08-26T07:05:45.399Z,27.11
2022-08-26T07:10:53.524Z,27.25
2022-08-26T07:16:09.698Z,27.54
2022-08-26T07:21:25.349Z,27.39
2022-08-26T07:26:33.125Z,27.35
2022-08-26T07:31:43.787Z,27.49
2022-08-26T07:36:56.218Z,27.65
2022-08-26T07:42:07.475Z,27.82
2022-08-26T07:47:24.913Z,28.18
2022-08-26T07:52:33.139Z,28.68
2022-08-26T07:57:43.635Z,28.75
2022-08-26T08:02:52.586Z,28.85
2022-08-26T08:08:26.875Z,28.95
2022-08-26T08:13:35.712Z,30.05
2022-08-26T08:18:47.171Z,30.21
2022-08-26T08:23:55.912Z,29.88
2022-08-26T08:29:06.950Z,30.08
2022-08-26T08:34:32.714Z,30.10
2022-08-26T08:39:39.637Z,30.31
2022-08-26T08:45:11.191Z,30.45
2022-08-26T08:50:34.668Z,31.01
2022-08-26T08:55:54.370Z,30.60
2022-08-26T09:01:20.224Z,30.62
2022-08-26T09:06:31.362Z,30.35
2022-08-26T09:11:44.805Z,30.41
2022-08-26T09:17:11.418Z,30.45
2022-08-26T09:22:35.187Z,30.46
2022-08-26T09:27:50.456Z,30.52
2022-08-26T09:33:10.063Z,30.47
2022-08-26T09:38:26.774Z,30.41
2022-08-26T09:43:32.696Z,30.41
2022-08-26T09:48:51.800Z,30.29
2022-08-26T09:54:08.014Z,30.44
2022-08-26T09:59:14.112Z,30.44
2022-08-26T10:04:31.085Z,30.53
2022-08-26T10:09:41.637Z,30.60
2022-08-26T10:14:52.575Z,30.72
2022-08-26T10:20:22.919Z,30.75
2022-08-26T10:25:34.350Z,30.64
2022-08-26T10:30:49.578Z,30.65
2022-08-26T10:36:03.523Z,30.83
2022-08-26T10:41:20.008Z,30.95
2022-08-26T10:46:44.826Z,31.12
2022-08-26T10:52:00.452Z,30.97
2022-08-26T10:57:19.447Z,30.92
2022-08-26T11:02:37.798Z,31.09
2022-08-26T11:07:52.060Z,31.26
2022-08-26T11:13:04.050Z,31.29
2022-08-26T11:18:14.597Z,31.53
2022-08-26T11:23:50.733Z,31.72
2022-08-26T11:29:05.081Z,31.79
2022-08-26T11:34:21.255Z,31.91
2022-08-26T11:39:31.921Z,32.19
2022-08-26T11:44:49.279Z,32.27
2022-08-26T11:50:09.731Z,32.32
2022-08-26T11:55:23.241Z,32.21
2022-08-26T12:00:33.829Z,32.33
2022-08-26T12:05:53.370Z,31.90
2022-08-26T12:11:30.616Z,31.24
2022-08-26T12:22:50.695Z,29.94
2022-08-26T12:28:06.491Z,29.25
2022-08-26T12:33:22.840Z,28.82
2022-08-26T12:38:43.799Z,28.39
2022-08-26T12:44:08.847Z,27.90
2022-08-26T12:49:27.648Z,27.70
2022-08-26T12:54:57.028Z,27.56
2022-08-26T13:00:33.244Z,27.38
2022-08-26T13:05:42.638Z,27.32
2022-08-26T13:11:05.356Z,27.19
2022-08-26T13:16:16.871Z,27.11
2022-08-26T13:21:37.396Z,27.11
2022-08-26T13:26:47.698Z,27.04
2022-08-26T13:31:54.299Z,27.02
2022-08-26T13:37:29.325Z,27.00
2022-08-26T13:42:52.812Z,26.97
2022-08-26T13:48:05.187Z,26.90
2022-08-26T13:53:17.162Z,26.85
2022-08-26T13:58:21.331Z,26.74
2022-08-26T14:03:32.484Z,26.65
2022-08-26T14:08:49.361Z,26.57
2022-08-26T14:13:56.766Z,26.43
2022-08-26T14:19:15.499Z,26.30
2022-08-26T14:24:25.284Z,26.17
2022-08-26T14:29:38.754Z,26.03
2022-08-26T14:34:45.725Z,25.99
2022-08-26T14:39:55.472Z,26.01
2022-08-26T14:45:16.124Z,26.08
2022-08-26T14:50:29.014Z,26.05
2022-08-26T14:55:39.138Z,26.08
2022-08-26T15:00:45.470Z,26.04
2022-08-26T15:11:30.530Z,26.07
2022-08-26T15:16:38.183Z,26.08
2022-08-26T15:22:03.639Z,26.09
2022-08-26T15:32:34.743Z,26.26
2022-08-26T15:37:42.080Z,26.30
2022-08-26T15:42:54.337Z,26.38
2022-08-26T15:48:06.388Z,26.46
2022-08-26T15:53:31.035Z,26.47
2022-08-26T15:59:07.205Z,26.43
2022-08-26T16:04:34.408Z,26.49
2022-08-26T16:09:45.440Z,26.46
2022-08-26T16:15:01.628Z,26.41
2022-08-26T16:20:08.882Z,26.45
2022-08-26T16:25:20.055Z,26.42
2022-08-26T16:36:01.464Z,26.31
2022-08-26T16:41:11.391Z,26.24
2022-08-26T16:46:26.031Z,26.16
2022-08-26T16:51:36.552Z,26.12
2022-08-26T16:56:56.564Z,26.11
2022-08-26T17:02:01.826Z,25.99
2022-08-26T17:07:07.244Z,25.91
2022-08-26T17:12:20.788Z,25.91
2022-08-26T17:17:28.328Z,25.86
2022-08-26T17:22:40.760Z,25.81
2022-08-26T17:27:57.560Z,25.76
2022-08-26T17:33:10.607Z,25.70
2022-08-26T17:38:24.862Z,25.62
2022-08-26T17:43:38.242Z,25.53
2022-08-26T17:48:50.665Z,25.46
2022-08-26T17:54:00.912Z,25.45
2022-08-26T17:59:18.656Z,25.30
2022-08-26T18:04:24.173Z,25.19
2022-08-26T18:09:36.592Z,25.09
2022-08-26T18:14:57.276Z,24.97
2022-08-26T18:20:18.500Z,24.87
2022-08-26T18:25:32.383Z,24.79
2022-08-26T18:30:47.101Z,24.76
2022-08-26T18:41:15.588Z,24.70
2022-08-26T18:46:41.146Z,24.71
2022-08-26T18:51:48.104Z,24.66
2022-08-26T18:56:57.361Z,24.60
2022-08-26T19:02:07.666Z,24.53
2022-08-26T19:07:12.076Z,24.46
2022-08-26T19:12:21.758Z,24.43
2022-08-26T19:17:28.011Z,24.42
2022-08-26T19:22:34.905Z,24.41
2022-08-26T19:27:46.664Z,24.38
2022-08-26T19:32:57.497Z,24.36
2022-08-26T19:38:07.544Z,24.34
2022-08-26T19:43:21.530Z,24.29
2022-08-26T19:48:32.424Z,24.24
2022-08-26T19:53:40.039Z,24.20
2022-08-26T19:58:53.229Z,24.19
2022-08-26T20:04:05.264Z,24.15
2022-08-26T20:09:14.685Z,24.13
2022-08-26T20:14:23.083Z,24.06
2022-08-26T20:19:45.126Z,24.01
2022-08-26T20:24:57.657Z,24.01
2022-08-26T20:30:05.186Z,24.01
2022-08-26T20:35:21.914Z,23.96
2022-08-26T20:40:47.324Z,23.90
2022-08-26T20:45:58.903Z,23.86
2022-08-26T20:51:22.775Z,23.79
2022-08-26T20:56:33.099Z,23.69
2022-08-26T21:01:42.645Z,23.65
2022-08-26T21:12:24.219Z,23.57
2022-08-26T21:17:33.967Z,23.57
2022-08-26T21:22:47.113Z,23.57
2022-08-26T21:28:22.274Z,23.55
2022-08-26T21:39:27.915Z,23.47
2022-08-26T21:44:34.180Z,23.42
2022-08-26T21:49:45.082Z,23.38
2022-08-26T21:55:11.783Z,23.34
2022-08-26T22:00:28.817Z,23.26
2022-08-26T22:05:57.237Z,23.22
2022-08-26T22:11:27.073Z,23.14
2022-08-26T22:16:37.043Z,23.07
2022-08-26T22:21:49.058Z,23.03
2022-08-26T22:27:01.072Z,22.96
2022-08-26T22:32:24.047Z,22.90
2022-08-26T22:37:35.252Z,22.86
2022-08-26T22:42:55.437Z,22.80
2022-08-26T22:48:05.130Z,22.76
2022-08-26T22:53:18.497Z,22.69
2022-08-26T22:58:33.677Z,22.67
2022-08-26T23:03:57.727Z,22.62
2022-08-26T23:09:09.938Z,22.59
2022-08-26T23:14:19.980Z,22.56
2022-08-26T23:19:29.698Z,22.54
2022-08-26T23:24:54.872Z,22.52
2022-08-26T23:30:30.837Z,22.53
2022-08-26T23:35:48.314Z,22.50
2022-08-26T23:41:03.712Z,22.50
2022-08-26T23:46:25.182Z,22.50
2022-08-26T23:51:46.945Z,22.46
2022-08-26T23:56:55.476Z,22.47
